sensor_id;sensor_type;location;lat;lon;timestamp;P1;durP1;ratioP1;P2;durP2;ratioP2
39140;SDS011;24875;48.436;10.298;2023-12-20T00:00:41;3.07;;;1.77;;
39140;SDS011;24875;48.436;10.298;2023-12-20T00:03:07;4.10;;;1.60;;
39140;SDS011;24875;48.436;10.298;2023-12-20T00:05:33;2.77;;;1.57;;
39140;SDS011;24875;48.436;10.298;2023-12-20T00:08:03;3.23;;;1.77;;
39140;SDS011;24875;48.436;10.298;2023-12-20T00:10:30;3.50;;;1.80;;
39140;SDS011;24875;48.436;10.298;2023-12-20T00:12:56;2.17;;;1.50;;
39140;SDS011;24875;48.436;10.298;2023-12-20T00:15:24;2.90;;;1.57;;
39140;SDS011;24875;48.436;10.298;2023-12-20T00:17:51;1.87;;;1.40;;
39140;SDS011;24875;48.436;10.298;2023-12-20T00:20:17;4.07;;;1.83;;
39140;SDS011;24875;48.436;10.298;2023-12-20T00:22:44;2.27;;;1.30;;
39140;SDS011;24875;48.436;10.298;2023-12-20T00:25:11;3.57;;;1.47;;
39140;SDS011;24875;48.436;10.298;2023-12-20T00:27:37;2.80;;;1.80;;
39140;SDS011;24875;48.436;10.298;2023-12-20T00:30:05;3.23;;;2.00;;
39140;SDS011;24875;48.436;10.298;2023-12-20T00:32:34;2.17;;;1.33;;
39140;SDS011;24875;48.436;10.298;2023-12-20T00:35:01;1.77;;;1.20;;
39140;SDS011;24875;48.436;10.298;2023-12-20T00:37:27;3.53;;;1.27;;
39140;SDS011;24875;48.436;10.298;2023-12-20T00:39:54;3.07;;;1.40;;
39140;SDS011;24875;48.436;10.298;2023-12-20T00:42:20;1.53;;;1.10;;
39140;SDS011;24875;48.436;10.298;2023-12-20T00:44:47;2.73;;;1.43;;
39140;SDS011;24875;48.436;10.298;2023-12-20T00:47:13;4.47;;;1.47;;
39140;SDS011;24875;48.436;10.298;2023-12-20T00:49:41;1.40;;;1.10;;
39140;SDS011;24875;48.436;10.298;2023-12-20T00:52:07;1.87;;;1.30;;
39140;SDS011;24875;48.436;10.298;2023-12-20T00:54:34;2.90;;;1.70;;
39140;SDS011;24875;48.436;10.298;2023-12-20T00:57:00;2.13;;;1.17;;
39140;SDS011;24875;48.436;10.298;2023-12-20T00:59:27;2.33;;;1.37;;
39140;SDS011;24875;48.436;10.298;2023-12-20T01:01:53;2.90;;;1.23;;
39140;SDS011;24875;48.436;10.298;2023-12-20T01:04:20;5.93;;;1.50;;
39140;SDS011;24875;48.436;10.298;2023-12-20T01:06:48;2.97;;;1.50;;
39140;SDS011;24875;48.436;10.298;2023-12-20T01:09:14;2.57;;;1.50;;
39140;SDS011;24875;48.436;10.298;2023-12-20T01:11:41;3.93;;;1.50;;
39140;SDS011;24875;48.436;10.298;2023-12-20T01:14:07;2.67;;;1.37;;
39140;SDS011;24875;48.436;10.298;2023-12-20T01:16:34;1.37;;;0.97;;
39140;SDS011;24875;48.436;10.298;2023-12-20T01:19:00;2.33;;;1.20;;
39140;SDS011;24875;48.436;10.298;2023-12-20T01:21:27;5.03;;;0.93;;
39140;SDS011;24875;48.436;10.298;2023-12-20T01:23:54;1.83;;;1.30;;
39140;SDS011;24875;48.436;10.298;2023-12-20T01:26:21;2.00;;;1.23;;
39140;SDS011;24875;48.436;10.298;2023-12-20T01:28:47;2.67;;;1.60;;
39140;SDS011;24875;48.436;10.298;2023-12-20T01:31:14;1.80;;;1.23;;
39140;SDS011;24875;48.436;10.298;2023-12-20T01:33:40;3.27;;;1.30;;
39140;SDS011;24875;48.436;10.298;2023-12-20T01:36:07;1.80;;;1.23;;
39140;SDS011;24875;48.436;10.298;2023-12-20T01:38:33;1.40;;;1.20;;
39140;SDS011;24875;48.436;10.298;2023-12-20T01:41:01;2.77;;;1.40;;
39140;SDS011;24875;48.436;10.298;2023-12-20T01:43:29;1.37;;;1.17;;
39140;SDS011;24875;48.436;10.298;2023-12-20T01:45:55;2.20;;;1.33;;
39140;SDS011;24875;48.436;10.298;2023-12-20T01:48:23;1.57;;;1.10;;
39140;SDS011;24875;48.436;10.298;2023-12-20T01:50:51;2.37;;;1.40;;
39140;SDS011;24875;48.436;10.298;2023-12-20T01:53:18;1.97;;;1.47;;
39140;SDS011;24875;48.436;10.298;2023-12-20T01:55:47;2.20;;;1.37;;
39140;SDS011;24875;48.436;10.298;2023-12-20T01:58:17;3.70;;;1.47;;
39140;SDS011;24875;48.436;10.298;2023-12-20T02:00:44;2.23;;;1.70;;
39140;SDS011;24875;48.436;10.298;2023-12-20T02:03:11;2.83;;;1.40;;
39140;SDS011;24875;48.436;10.298;2023-12-20T02:05:38;1.23;;;1.07;;
39140;SDS011;24875;48.436;10.298;2023-12-20T02:08:05;2.30;;;0.90;;
39140;SDS011;24875;48.436;10.298;2023-12-20T02:10:32;1.07;;;0.97;;
39140;SDS011;24875;48.436;10.298;2023-12-20T02:13:00;2.30;;;1.53;;
39140;SDS011;24875;48.436;10.298;2023-12-20T02:15:28;1.57;;;0.97;;
39140;SDS011;24875;48.436;10.298;2023-12-20T02:17:54;3.17;;;1.30;;
39140;SDS011;24875;48.436;10.298;2023-12-20T02:20:21;1.83;;;1.20;;
39140;SDS011;24875;48.436;10.298;2023-12-20T02:22:49;2.60;;;1.30;;
39140;SDS011;24875;48.436;10.298;2023-12-20T02:25:16;1.40;;;1.20;;
39140;SDS011;24875;48.436;10.298;2023-12-20T02:27:42;2.30;;;1.30;;
39140;SDS011;24875;48.436;10.298;2023-12-20T02:30:09;1.43;;;1.10;;
39140;SDS011;24875;48.436;10.298;2023-12-20T02:32:36;1.07;;;0.90;;
39140;SDS011;24875;48.436;10.298;2023-12-20T02:35:03;3.37;;;1.40;;
39140;SDS011;24875;48.436;10.298;2023-12-20T02:37:30;2.57;;;1.30;;
39140;SDS011;24875;48.436;10.298;2023-12-20T02:39:58;3.03;;;1.40;;
39140;SDS011;24875;48.436;10.298;2023-12-20T02:42:24;2.00;;;1.50;;
39140;SDS011;24875;48.436;10.298;2023-12-20T02:44:51;4.13;;;1.87;;
39140;SDS011;24875;48.436;10.298;2023-12-20T02:47:17;2.20;;;1.40;;
39140;SDS011;24875;48.436;10.298;2023-12-20T02:49:44;3.50;;;1.40;;
39140;SDS011;24875;48.436;10.298;2023-12-20T02:52:10;2.63;;;1.10;;
39140;SDS011;24875;48.436;10.298;2023-12-20T02:54:37;2.43;;;1.40;;
39140;SDS011;24875;48.436;10.298;2023-12-20T02:57:05;2.90;;;1.40;;
39140;SDS011;24875;48.436;10.298;2023-12-20T02:59:32;3.63;;;1.60;;
39140;SDS011;24875;48.436;10.298;2023-12-20T03:01:58;3.77;;;1.87;;
39140;SDS011;24875;48.436;10.298;2023-12-20T03:04:25;2.20;;;1.00;;
39140;SDS011;24875;48.436;10.298;2023-12-20T03:06:51;4.00;;;2.07;;
39140;SDS011;24875;48.436;10.298;2023-12-20T03:09:18;1.27;;;0.87;;
39140;SDS011;24875;48.436;10.298;2023-12-20T03:11:44;2.77;;;1.33;;
39140;SDS011;24875;48.436;10.298;2023-12-20T03:14:12;2.23;;;1.20;;
39140;SDS011;24875;48.436;10.298;2023-12-20T03:16:39;3.23;;;1.67;;
39140;SDS011;24875;48.436;10.298;2023-12-20T03:19:05;2.27;;;1.20;;
39140;SDS011;24875;48.436;10.298;2023-12-20T03:21:32;2.33;;;1.23;;
39140;SDS011;24875;48.436;10.298;2023-12-20T03:23:58;1.50;;;1.23;;
39140;SDS011;24875;48.436;10.298;2023-12-20T03:26:25;2.63;;;1.43;;
39140;SDS011;24875;48.436;10.298;2023-12-20T03:28:51;5.80;;;1.67;;
39140;SDS011;24875;48.436;10.298;2023-12-20T03:31:19;2.03;;;1.57;;
39140;SDS011;24875;48.436;10.298;2023-12-20T03:33:46;1.77;;;1.33;;
39140;SDS011;24875;48.436;10.298;2023-12-20T03:36:12;1.63;;;1.47;;
39140;SDS011;24875;48.436;10.298;2023-12-20T03:38:39;1.63;;;1.10;;
39140;SDS011;24875;48.436;10.298;2023-12-20T03:41:06;2.53;;;1.57;;
39140;SDS011;24875;48.436;10.298;2023-12-20T03:43:33;2.07;;;1.40;;
39140;SDS011;24875;48.436;10.298;2023-12-20T03:46:00;2.87;;;1.67;;
39140;SDS011;24875;48.436;10.298;2023-12-20T03:48:30;2.80;;;1.70;;
39140;SDS011;24875;48.436;10.298;2023-12-20T03:50:56;1.57;;;1.13;;
39140;SDS011;24875;48.436;10.298;2023-12-20T03:53:23;1.47;;;1.10;;
39140;SDS011;24875;48.436;10.298;2023-12-20T03:55:50;2.60;;;1.20;;
39140;SDS011;24875;48.436;10.298;2023-12-20T03:58:16;3.83;;;1.63;;
39140;SDS011;24875;48.436;10.298;2023-12-20T04:00:43;3.37;;;1.43;;
39140;SDS011;24875;48.436;10.298;2023-12-20T04:03:09;2.90;;;1.77;;
39140;SDS011;24875;48.436;10.298;2023-12-20T04:05:39;2.80;;;1.67;;
39140;SDS011;24875;48.436;10.298;2023-12-20T04:08:05;2.67;;;1.63;;
39140;SDS011;24875;48.436;10.298;2023-12-20T04:10:32;4.37;;;2.03;;
39140;SDS011;24875;48.436;10.298;2023-12-20T04:12:58;3.10;;;1.57;;
39140;SDS011;24875;48.436;10.298;2023-12-20T04:15:25;1.97;;;1.30;;
39140;SDS011;24875;48.436;10.298;2023-12-20T04:17:51;2.93;;;1.50;;
39140;SDS011;24875;48.436;10.298;2023-12-20T04:20:18;2.60;;;1.83;;
39140;SDS011;24875;48.436;10.298;2023-12-20T04:22:46;2.63;;;1.70;;
39140;SDS011;24875;48.436;10.298;2023-12-20T04:25:12;2.27;;;1.47;;
39140;SDS011;24875;48.436;10.298;2023-12-20T04:27:39;3.90;;;1.57;;
39140;SDS011;24875;48.436;10.298;2023-12-20T04:30:06;1.77;;;1.50;;
39140;SDS011;24875;48.436;10.298;2023-12-20T04:32:34;2.43;;;1.40;;
39140;SDS011;24875;48.436;10.298;2023-12-20T04:35:00;4.93;;;2.13;;
39140;SDS011;24875;48.436;10.298;2023-12-20T04:37:27;2.47;;;1.47;;
39140;SDS011;24875;48.436;10.298;2023-12-20T04:39:55;4.77;;;1.93;;
39140;SDS011;24875;48.436;10.298;2023-12-20T04:42:21;3.83;;;2.00;;
39140;SDS011;24875;48.436;10.298;2023-12-20T04:44:47;2.50;;;1.60;;
39140;SDS011;24875;48.436;10.298;2023-12-20T04:47:14;1.67;;;1.27;;
39140;SDS011;24875;48.436;10.298;2023-12-20T04:49:40;1.50;;;1.40;;
39140;SDS011;24875;48.436;10.298;2023-12-20T04:52:07;2.23;;;1.23;;
39140;SDS011;24875;48.436;10.298;2023-12-20T04:54:33;2.03;;;1.43;;
39140;SDS011;24875;48.436;10.298;2023-12-20T04:57:01;3.43;;;1.40;;
39140;SDS011;24875;48.436;10.298;2023-12-20T04:59:28;2.27;;;1.60;;
39140;SDS011;24875;48.436;10.298;2023-12-20T05:01:55;1.73;;;1.30;;
39140;SDS011;24875;48.436;10.298;2023-12-20T05:04:22;3.67;;;1.40;;
39140;SDS011;24875;48.436;10.298;2023-12-20T05:06:49;2.17;;;1.30;;
39140;SDS011;24875;48.436;10.298;2023-12-20T05:09:15;1.63;;;1.13;;
39140;SDS011;24875;48.436;10.298;2023-12-20T05:11:42;3.93;;;1.70;;
39140;SDS011;24875;48.436;10.298;2023-12-20T05:14:10;2.53;;;1.50;;
39140;SDS011;24875;48.436;10.298;2023-12-20T05:16:37;2.57;;;1.40;;
39140;SDS011;24875;48.436;10.298;2023-12-20T05:19:03;2.30;;;1.33;;
39140;SDS011;24875;48.436;10.298;2023-12-20T05:21:31;1.40;;;1.10;;
39140;SDS011;24875;48.436;10.298;2023-12-20T05:23:58;3.13;;;1.90;;
39140;SDS011;24875;48.436;10.298;2023-12-20T05:26:24;3.33;;;1.80;;
39140;SDS011;24875;48.436;10.298;2023-12-20T05:28:51;2.53;;;1.30;;
39140;SDS011;24875;48.436;10.298;2023-12-20T05:31:19;2.30;;;1.57;;
39140;SDS011;24875;48.436;10.298;2023-12-20T05:33:45;2.47;;;1.30;;
39140;SDS011;24875;48.436;10.298;2023-12-20T05:36:12;3.17;;;1.90;;
39140;SDS011;24875;48.436;10.298;2023-12-20T05:38:40;2.43;;;1.70;;
39140;SDS011;24875;48.436;10.298;2023-12-20T05:41:06;2.60;;;1.53;;
39140;SDS011;24875;48.436;10.298;2023-12-20T05:43:33;2.83;;;1.20;;
39140;SDS011;24875;48.436;10.298;2023-12-20T05:45:59;2.87;;;1.70;;
39140;SDS011;24875;48.436;10.298;2023-12-20T05:48:27;1.83;;;1.30;;
39140;SDS011;24875;48.436;10.298;2023-12-20T05:50:54;2.43;;;1.53;;
39140;SDS011;24875;48.436;10.298;2023-12-20T05:53:20;3.33;;;1.60;;
39140;SDS011;24875;48.436;10.298;2023-12-20T05:55:47;3.43;;;1.20;;
39140;SDS011;24875;48.436;10.298;2023-12-20T05:58:13;2.63;;;1.37;;
39140;SDS011;24875;48.436;10.298;2023-12-20T06:00:40;1.80;;;1.40;;
39140;SDS011;24875;48.436;10.298;2023-12-20T06:03:06;2.57;;;1.70;;
39140;SDS011;24875;48.436;10.298;2023-12-20T06:05:34;3.00;;;1.73;;
39140;SDS011;24875;48.436;10.298;2023-12-20T06:08:01;2.10;;;1.37;;
39140;SDS011;24875;48.436;10.298;2023-12-20T06:10:28;3.37;;;1.40;;
39140;SDS011;24875;48.436;10.298;2023-12-20T06:12:54;1.50;;;1.13;;
39140;SDS011;24875;48.436;10.298;2023-12-20T06:15:22;1.30;;;0.97;;
39140;SDS011;24875;48.436;10.298;2023-12-20T06:17:49;2.20;;;1.40;;
39140;SDS011;24875;48.436;10.298;2023-12-20T06:20:15;4.57;;;1.90;;
39140;SDS011;24875;48.436;10.298;2023-12-20T06:22:43;2.90;;;1.30;;
39140;SDS011;24875;48.436;10.298;2023-12-20T06:25:10;1.53;;;1.10;;
39140;SDS011;24875;48.436;10.298;2023-12-20T06:27:36;2.47;;;1.53;;
39140;SDS011;24875;48.436;10.298;2023-12-20T06:30:03;3.63;;;1.80;;
39140;SDS011;24875;48.436;10.298;2023-12-20T06:32:30;2.67;;;1.40;;
39140;SDS011;24875;48.436;10.298;2023-12-20T06:34:57;3.40;;;2.00;;
39140;SDS011;24875;48.436;10.298;2023-12-20T06:37:23;3.80;;;1.53;;
39140;SDS011;24875;48.436;10.298;2023-12-20T06:39:51;2.40;;;1.90;;
39140;SDS011;24875;48.436;10.298;2023-12-20T06:42:18;2.63;;;1.50;;
39140;SDS011;24875;48.436;10.298;2023-12-20T06:44:44;2.87;;;1.80;;
39140;SDS011;24875;48.436;10.298;2023-12-20T06:47:11;2.90;;;1.60;;
39140;SDS011;24875;48.436;10.298;2023-12-20T06:49:39;2.97;;;1.73;;
39140;SDS011;24875;48.436;10.298;2023-12-20T06:52:05;5.13;;;2.90;;
39140;SDS011;24875;48.436;10.298;2023-12-20T06:54:32;4.57;;;2.40;;
39140;SDS011;24875;48.436;10.298;2023-12-20T06:57:00;7.37;;;2.60;;
39140;SDS011;24875;48.436;10.298;2023-12-20T06:59:28;5.53;;;3.00;;
39140;SDS011;24875;48.436;10.298;2023-12-20T07:01:54;5.03;;;2.60;;
39140;SDS011;24875;48.436;10.298;2023-12-20T07:04:21;4.17;;;2.10;;
39140;SDS011;24875;48.436;10.298;2023-12-20T07:06:47;4.73;;;2.30;;
39140;SDS011;24875;48.436;10.298;2023-12-20T07:09:16;5.13;;;2.60;;
39140;SDS011;24875;48.436;10.298;2023-12-20T07:11:42;5.27;;;2.57;;
39140;SDS011;24875;48.436;10.298;2023-12-20T07:14:09;6.33;;;3.40;;
39140;SDS011;24875;48.436;10.298;2023-12-20T07:16:36;7.00;;;3.33;;
39140;SDS011;24875;48.436;10.298;2023-12-20T07:19:02;8.40;;;3.10;;
39140;SDS011;24875;48.436;10.298;2023-12-20T07:21:29;4.87;;;3.07;;
39140;SDS011;24875;48.436;10.298;2023-12-20T07:23:55;5.20;;;2.83;;
39140;SDS011;24875;48.436;10.298;2023-12-20T07:26:21;8.40;;;3.70;;
39140;SDS011;24875;48.436;10.298;2023-12-20T07:28:48;6.10;;;3.20;;
39140;SDS011;24875;48.436;10.298;2023-12-20T07:31:16;6.10;;;3.07;;
39140;SDS011;24875;48.436;10.298;2023-12-20T07:33:43;5.80;;;2.97;;
39140;SDS011;24875;48.436;10.298;2023-12-20T07:36:09;6.23;;;3.03;;
39140;SDS011;24875;48.436;10.298;2023-12-20T07:38:36;6.93;;;3.30;;
39140;SDS011;24875;48.436;10.298;2023-12-20T07:41:03;6.43;;;3.50;;
39140;SDS011;24875;48.436;10.298;2023-12-20T07:43:29;9.03;;;3.17;;
39140;SDS011;24875;48.436;10.298;2023-12-20T07:45:56;7.80;;;3.93;;
39140;SDS011;24875;48.436;10.298;2023-12-20T07:48:24;7.53;;;3.77;;
39140;SDS011;24875;48.436;10.298;2023-12-20T07:50:50;5.03;;;2.77;;
39140;SDS011;24875;48.436;10.298;2023-12-20T07:53:18;6.23;;;3.37;;
39140;SDS011;24875;48.436;10.298;2023-12-20T07:55:44;5.47;;;2.97;;
39140;SDS011;24875;48.436;10.298;2023-12-20T07:58:10;6.03;;;3.27;;
39140;SDS011;24875;48.436;10.298;2023-12-20T08:00:37;6.33;;;3.33;;
39140;SDS011;24875;48.436;10.298;2023-12-20T08:03:04;9.17;;;3.33;;
39140;SDS011;24875;48.436;10.298;2023-12-20T08:05:32;7.73;;;3.13;;
39140;SDS011;24875;48.436;10.298;2023-12-20T08:07:58;6.83;;;3.53;;
39140;SDS011;24875;48.436;10.298;2023-12-20T08:10:25;5.17;;;2.80;;
39140;SDS011;24875;48.436;10.298;2023-12-20T08:12:52;6.63;;;3.83;;
39140;SDS011;24875;48.436;10.298;2023-12-20T08:15:18;5.00;;;3.30;;
39140;SDS011;24875;48.436;10.298;2023-12-20T08:17:45;5.17;;;3.10;;
39140;SDS011;24875;48.436;10.298;2023-12-20T08:20:11;7.20;;;3.57;;
39140;SDS011;24875;48.436;10.298;2023-12-20T08:22:39;5.20;;;3.03;;
39140;SDS011;24875;48.436;10.298;2023-12-20T08:25:06;5.20;;;3.27;;
39140;SDS011;24875;48.436;10.298;2023-12-20T08:27:33;6.20;;;3.23;;
39140;SDS011;24875;48.436;10.298;2023-12-20T08:30:00;4.37;;;2.87;;
39140;SDS011;24875;48.436;10.298;2023-12-20T08:32:26;4.07;;;2.70;;
39140;SDS011;24875;48.436;10.298;2023-12-20T08:34:53;5.40;;;2.80;;
39140;SDS011;24875;48.436;10.298;2023-12-20T08:37:19;5.60;;;3.00;;
39140;SDS011;24875;48.436;10.298;2023-12-20T08:39:47;4.77;;;3.13;;
39140;SDS011;24875;48.436;10.298;2023-12-20T08:42:13;7.07;;;2.93;;
39140;SDS011;24875;48.436;10.298;2023-12-20T08:44:40;4.97;;;2.80;;
39140;SDS011;24875;48.436;10.298;2023-12-20T08:47:06;7.87;;;3.67;;
39140;SDS011;24875;48.436;10.298;2023-12-20T08:49:33;4.37;;;2.73;;
39140;SDS011;24875;48.436;10.298;2023-12-20T08:51:59;7.40;;;3.30;;
39140;SDS011;24875;48.436;10.298;2023-12-20T08:54:26;5.83;;;2.47;;
39140;SDS011;24875;48.436;10.298;2023-12-20T08:56:54;3.93;;;2.47;;
39140;SDS011;24875;48.436;10.298;2023-12-20T08:59:20;6.60;;;2.83;;
39140;SDS011;24875;48.436;10.298;2023-12-20T09:01:47;5.87;;;2.60;;
39140;SDS011;24875;48.436;10.298;2023-12-20T09:04:19;3.73;;;2.47;;
39140;SDS011;24875;48.436;10.298;2023-12-20T09:06:45;9.43;;;3.57;;
39140;SDS011;24875;48.436;10.298;2023-12-20T09:09:12;7.77;;;4.20;;
39140;SDS011;24875;48.436;10.298;2023-12-20T09:11:38;7.10;;;3.53;;
39140;SDS011;24875;48.436;10.298;2023-12-20T09:14:06;6.80;;;2.90;;
39140;SDS011;24875;48.436;10.298;2023-12-20T09:16:33;11.50;;;3.00;;
39140;SDS011;24875;48.436;10.298;2023-12-20T09:19:00;3.87;;;2.43;;
39140;SDS011;24875;48.436;10.298;2023-12-20T09:21:26;5.47;;;2.80;;
39140;SDS011;24875;48.436;10.298;2023-12-20T09:23:53;5.33;;;2.50;;
39140;SDS011;24875;48.436;10.298;2023-12-20T09:26:19;7.73;;;3.70;;
39140;SDS011;24875;48.436;10.298;2023-12-20T09:28:46;6.70;;;3.53;;
39140;SDS011;24875;48.436;10.298;2023-12-20T09:31:14;5.23;;;2.73;;
39140;SDS011;24875;48.436;10.298;2023-12-20T09:33:40;6.70;;;3.10;;
39140;SDS011;24875;48.436;10.298;2023-12-20T09:36:07;6.33;;;3.30;;
39140;SDS011;24875;48.436;10.298;2023-12-20T09:38:33;7.20;;;3.40;;
39140;SDS011;24875;48.436;10.298;2023-12-20T09:40:59;4.50;;;2.43;;
39140;SDS011;24875;48.436;10.298;2023-12-20T09:43:29;5.13;;;2.60;;
39140;SDS011;24875;48.436;10.298;2023-12-20T09:45:57;4.33;;;2.03;;
39140;SDS011;24875;48.436;10.298;2023-12-20T09:48:28;3.17;;;2.07;;
39140;SDS011;24875;48.436;10.298;2023-12-20T09:50:56;3.50;;;2.07;;
39140;SDS011;24875;48.436;10.298;2023-12-20T09:53:22;4.67;;;2.23;;
39140;SDS011;24875;48.436;10.298;2023-12-20T09:55:54;2.83;;;1.80;;
39140;SDS011;24875;48.436;10.298;2023-12-20T09:58:24;3.77;;;2.10;;
39140;SDS011;24875;48.436;10.298;2023-12-20T10:00:50;2.67;;;1.60;;
39140;SDS011;24875;48.436;10.298;2023-12-20T10:03:17;4.83;;;2.27;;
39140;SDS011;24875;48.436;10.298;2023-12-20T10:05:51;6.30;;;2.47;;
39140;SDS011;24875;48.436;10.298;2023-12-20T10:08:20;2.87;;;2.00;;
39140;SDS011;24875;48.436;10.298;2023-12-20T10:10:48;4.60;;;2.20;;
39140;SDS011;24875;48.436;10.298;2023-12-20T10:13:15;3.77;;;2.40;;
39140;SDS011;24875;48.436;10.298;2023-12-20T10:15:41;3.23;;;1.90;;
39140;SDS011;24875;48.436;10.298;2023-12-20T10:18:08;3.00;;;1.80;;
39140;SDS011;24875;48.436;10.298;2023-12-20T10:20:35;1.73;;;1.00;;
39140;SDS011;24875;48.436;10.298;2023-12-20T10:23:04;1.50;;;1.20;;
39140;SDS011;24875;48.436;10.298;2023-12-20T10:25:30;1.70;;;1.00;;
39140;SDS011;24875;48.436;10.298;2023-12-20T10:28:08;2.77;;;1.27;;
39140;SDS011;24875;48.436;10.298;2023-12-20T10:30:35;1.63;;;1.20;;
39140;SDS011;24875;48.436;10.298;2023-12-20T10:33:02;1.93;;;1.30;;
39140;SDS011;24875;48.436;10.298;2023-12-20T10:35:29;1.33;;;1.10;;
39140;SDS011;24875;48.436;10.298;2023-12-20T10:37:56;1.90;;;1.20;;
39140;SDS011;24875;48.436;10.298;2023-12-20T10:40:23;4.47;;;1.27;;
39140;SDS011;24875;48.436;10.298;2023-12-20T10:42:52;1.67;;;1.07;;
39140;SDS011;24875;48.436;10.298;2023-12-20T10:45:19;1.83;;;1.17;;
39140;SDS011;24875;48.436;10.298;2023-12-20T10:47:46;1.03;;;0.90;;
39140;SDS011;24875;48.436;10.298;2023-12-20T10:50:13;2.83;;;1.57;;
39140;SDS011;24875;48.436;10.298;2023-12-20T10:52:40;2.40;;;1.53;;
39140;SDS011;24875;48.436;10.298;2023-12-20T10:55:08;1.53;;;1.20;;
39140;SDS011;24875;48.436;10.298;2023-12-20T10:57:36;1.20;;;1.00;;
39140;SDS011;24875;48.436;10.298;2023-12-20T11:00:03;1.57;;;1.20;;
39140;SDS011;24875;48.436;10.298;2023-12-20T11:02:36;1.40;;;1.10;;
39140;SDS011;24875;48.436;10.298;2023-12-20T11:05:06;0.70;;;0.70;;
39140;SDS011;24875;48.436;10.298;2023-12-20T11:07:43;0.77;;;0.77;;
39140;SDS011;24875;48.436;10.298;2023-12-20T11:10:15;4.03;;;0.87;;
39140;SDS011;24875;48.436;10.298;2023-12-20T11:12:48;1.13;;;0.90;;
39140;SDS011;24875;48.436;10.298;2023-12-20T11:15:19;0.97;;;0.83;;
39140;SDS011;24875;48.436;10.298;2023-12-20T11:17:51;1.37;;;0.80;;
39140;SDS011;24875;48.436;10.298;2023-12-20T11:20:21;0.43;;;0.43;;
39140;SDS011;24875;48.436;10.298;2023-12-20T11:22:52;0.70;;;0.70;;
39140;SDS011;24875;48.436;10.298;2023-12-20T11:25:19;0.80;;;0.80;;
39140;SDS011;24875;48.436;10.298;2023-12-20T11:30:41;1.03;;;0.60;;
39140;SDS011;24875;48.436;10.298;2023-12-20T11:33:08;1.70;;;1.03;;
39140;SDS011;24875;48.436;10.298;2023-12-20T11:35:35;0.70;;;0.70;;
39140;SDS011;24875;48.436;10.298;2023-12-20T11:38:02;1.60;;;0.53;;
39140;SDS011;24875;48.436;10.298;2023-12-20T11:40:29;0.90;;;0.80;;
39140;SDS011;24875;48.436;10.298;2023-12-20T11:43:00;0.50;;;0.50;;
39140;SDS011;24875;48.436;10.298;2023-12-20T11:45:27;3.30;;;1.23;;
39140;SDS011;24875;48.436;10.298;2023-12-20T11:47:54;1.00;;;0.77;;
39140;SDS011;24875;48.436;10.298;2023-12-20T11:50:22;0.73;;;0.73;;
39140;SDS011;24875;48.436;10.298;2023-12-20T11:52:50;2.20;;;1.23;;
39140;SDS011;24875;48.436;10.298;2023-12-20T11:55:18;1.50;;;0.50;;
39140;SDS011;24875;48.436;10.298;2023-12-20T11:57:45;3.77;;;0.70;;
39140;SDS011;24875;48.436;10.298;2023-12-20T12:00:14;3.27;;;1.20;;
39140;SDS011;24875;48.436;10.298;2023-12-20T12:02:43;1.20;;;0.57;;
39140;SDS011;24875;48.436;10.298;2023-12-20T12:05:09;3.63;;;1.20;;
39140;SDS011;24875;48.436;10.298;2023-12-20T12:07:36;3.50;;;0.83;;
39140;SDS011;24875;48.436;10.298;2023-12-20T12:10:06;1.00;;;0.93;;
39140;SDS011;24875;48.436;10.298;2023-12-20T12:12:33;3.90;;;1.23;;
39140;SDS011;24875;48.436;10.298;2023-12-20T12:15:03;1.07;;;0.90;;
39140;SDS011;24875;48.436;10.298;2023-12-20T12:17:30;0.80;;;0.60;;
39140;SDS011;24875;48.436;10.298;2023-12-20T12:20:03;0.70;;;0.70;;
39140;SDS011;24875;48.436;10.298;2023-12-20T12:22:32;0.70;;;0.70;;
39140;SDS011;24875;48.436;10.298;2023-12-20T12:24:59;2.13;;;0.73;;
39140;SDS011;24875;48.436;10.298;2023-12-20T12:27:36;0.77;;;0.70;;
39140;SDS011;24875;48.436;10.298;2023-12-20T12:30:04;2.97;;;1.07;;
39140;SDS011;24875;48.436;10.298;2023-12-20T12:32:32;1.73;;;1.07;;
39140;SDS011;24875;48.436;10.298;2023-12-20T12:34:59;0.67;;;0.67;;
39140;SDS011;24875;48.436;10.298;2023-12-20T12:37:26;1.37;;;1.07;;
39140;SDS011;24875;48.436;10.298;2023-12-20T12:39:53;0.93;;;0.60;;
39140;SDS011;24875;48.436;10.298;2023-12-20T12:42:20;1.00;;;0.53;;
39140;SDS011;24875;48.436;10.298;2023-12-20T12:44:46;3.33;;;0.73;;
39140;SDS011;24875;48.436;10.298;2023-12-20T12:47:13;0.70;;;0.50;;
39140;SDS011;24875;48.436;10.298;2023-12-20T12:49:40;0.60;;;0.57;;
39140;SDS011;24875;48.436;10.298;2023-12-20T12:52:06;0.50;;;0.50;;
39140;SDS011;24875;48.436;10.298;2023-12-20T12:54:34;4.07;;;0.77;;
39140;SDS011;24875;48.436;10.298;2023-12-20T12:57:01;2.30;;;1.33;;
39140;SDS011;24875;48.436;10.298;2023-12-20T12:59:28;1.77;;;0.80;;
39140;SDS011;24875;48.436;10.298;2023-12-20T13:01:54;3.07;;;1.00;;
39140;SDS011;24875;48.436;10.298;2023-12-20T13:04:21;1.07;;;0.70;;
39140;SDS011;24875;48.436;10.298;2023-12-20T13:06:48;6.40;;;2.10;;
39140;SDS011;24875;48.436;10.298;2023-12-20T13:09:14;1.23;;;0.60;;
39140;SDS011;24875;48.436;10.298;2023-12-20T13:11:42;1.57;;;1.03;;
39140;SDS011;24875;48.436;10.298;2023-12-20T13:14:09;2.87;;;1.00;;
39140;SDS011;24875;48.436;10.298;2023-12-20T13:16:40;2.00;;;0.77;;
39140;SDS011;24875;48.436;10.298;2023-12-20T13:19:06;1.53;;;0.70;;
39140;SDS011;24875;48.436;10.298;2023-12-20T13:21:33;0.30;;;0.30;;
39140;SDS011;24875;48.436;10.298;2023-12-20T13:23:59;1.53;;;0.70;;
39140;SDS011;24875;48.436;10.298;2023-12-20T13:26:26;1.80;;;0.97;;
39140;SDS011;24875;48.436;10.298;2023-12-20T13:28:54;0.70;;;0.70;;
39140;SDS011;24875;48.436;10.298;2023-12-20T13:31:21;5.87;;;0.63;;
39140;SDS011;24875;48.436;10.298;2023-12-20T13:33:47;1.10;;;0.80;;
39140;SDS011;24875;48.436;10.298;2023-12-20T13:36:14;1.50;;;0.60;;
39140;SDS011;24875;48.436;10.298;2023-12-20T13:38:40;8.77;;;1.20;;
39140;SDS011;24875;48.436;10.298;2023-12-20T13:41:07;1.90;;;0.90;;
39140;SDS011;24875;48.436;10.298;2023-12-20T13:43:33;11.27;;;1.30;;
39140;SDS011;24875;48.436;10.298;2023-12-20T13:46:02;38.50;;;2.27;;
39140;SDS011;24875;48.436;10.298;2023-12-20T13:48:28;2.63;;;1.17;;
39140;SDS011;24875;48.436;10.298;2023-12-20T13:50:55;7.03;;;1.70;;
39140;SDS011;24875;48.436;10.298;2023-12-20T13:53:22;4.43;;;1.03;;
39140;SDS011;24875;48.436;10.298;2023-12-20T13:55:48;0.50;;;0.50;;
39140;SDS011;24875;48.436;10.298;2023-12-20T13:58:15;1.90;;;0.70;;
39140;SDS011;24875;48.436;10.298;2023-12-20T14:00:41;3.50;;;1.27;;
39140;SDS011;24875;48.436;10.298;2023-12-20T14:03:09;0.50;;;0.50;;
39140;SDS011;24875;48.436;10.298;2023-12-20T14:05:35;1.93;;;0.70;;
39140;SDS011;24875;48.436;10.298;2023-12-20T14:08:02;0.90;;;0.80;;
39140;SDS011;24875;48.436;10.298;2023-12-20T14:10:29;3.57;;;0.87;;
39140;SDS011;24875;48.436;10.298;2023-12-20T14:12:55;2.37;;;0.70;;
39140;SDS011;24875;48.436;10.298;2023-12-20T14:15:22;1.07;;;0.60;;
39140;SDS011;24875;48.436;10.298;2023-12-20T14:17:50;1.33;;;0.97;;
39140;SDS011;24875;48.436;10.298;2023-12-20T14:20:18;0.70;;;0.70;;
39140;SDS011;24875;48.436;10.298;2023-12-20T14:22:45;0.60;;;0.60;;
39140;SDS011;24875;48.436;10.298;2023-12-20T14:25:11;0.50;;;0.50;;
39140;SDS011;24875;48.436;10.298;2023-12-20T14:27:39;2.67;;;0.77;;
39140;SDS011;24875;48.436;10.298;2023-12-20T14:30:08;0.60;;;0.60;;
39140;SDS011;24875;48.436;10.298;2023-12-20T14:32:36;10.60;;;0.87;;
39140;SDS011;24875;48.436;10.298;2023-12-20T14:35:04;0.83;;;0.60;;